Time;durP1;ratioP1;P1;durP2;ratioP2;P2;SDS_P1;SDS_P2;PMS_P1;PMS_P2;Temp;Humidity;BMP_temperature;BMP_pressure;BME280_temperature;BME280_humidity;BME280_pressure;Samples;Min_cycle;Max_cycle;Signal;HPM_P1;HPM_P2
2022/07/08 00:01:30;;;;;;;6.30;2.70;;;;;;;14.65;66.19;101233.06;4992719;28;20257;-77
2022/07/08 00:03:56;;;;;;;7.83;2.43;;;;;;;14.60;65.98;101237.59;4995507;28;20203;-78
2022/07/08 00:06:21;;;;;;;6.17;2.03;;;;;;;14.61;66.11;101226.31;4991640;28;20304;-80
2022/07/08 00:08:46;;;;;;;6.97;1.97;;;;;;;14.57;65.89;101232.59;4992594;28;20191;-79
2022/07/08 00:11:12;;;;;;;5.23;2.07;;;;;;;14.59;65.91;101231.59;4994123;28;20226;-79
2022/07/08 00:13:37;;;;;;;7.70;2.33;;;;;;;14.59;66.28;101228.19;5001850;28;20257;-78
2022/07/08 00:16:03;;;;;;;6.07;1.97;;;;;;;14.60;66.72;101240.19;4992617;28;20191;-78
2022/07/08 00:18:28;;;;;;;5.63;1.87;;;;;;;14.43;67.01;101228.16;4990337;28;20201;-77
2022/07/08 00:20:54;;;;;;;7.47;2.23;;;;;;;14.40;65.57;101221.38;4994569;28;20231;-77
2022/07/08 00:23:19;;;;;;;6.57;1.93;;;;;;;14.40;65.32;101221.38;4993674;28;20176;-77
2022/07/08 00:25:44;;;;;;;9.70;1.97;;;;;;;14.35;66.30;101229.38;4992893;28;20250;-79
2022/07/08 00:28:09;;;;;;;9.67;2.60;;;;;;;14.41;66.91;101230.78;4994982;28;20175;-79
2022/07/08 00:30:35;;;;;;;8.20;2.00;;;;;;;14.45;67.41;101234.91;4988540;28;20265;-78
2022/07/08 00:33:00;;;;;;;6.87;1.90;;;;;;;14.36;68.42;101240.56;4994868;28;20180;-77
2022/07/08 00:35:26;;;;;;;6.83;2.40;;;;;;;14.22;69.50;101243.88;4983914;28;20218;-74
2022/07/08 00:37:53;;;;;;;6.27;2.10;;;;;;;14.27;69.97;101252.22;5007324;28;20187;-78
2022/07/08 00:40:18;;;;;;;7.00;2.03;;;;;;;14.27;70.69;101254.00;4986130;28;20188;-77
2022/07/08 00:42:48;;;;;;;6.63;2.70;;;;;;;14.22;71.89;101251.63;4990767;28;20193;-78
2022/07/08 00:45:13;;;;;;;7.87;2.27;;;;;;;14.22;72.19;101253.41;4994651;28;20191;-78
2022/07/08 00:47:38;;;;;;;8.10;2.77;;;;;;;14.26;72.78;101257.50;4994549;28;20194;-78
2022/07/08 00:50:05;;;;;;;10.33;2.30;;;;;;;14.27;72.99;101256.59;5005046;28;20278;-78
2022/07/08 00:52:31;;;;;;;6.27;2.20;;;;;;;14.15;73.27;101261.47;4993058;28;20642;-78
2022/07/08 00:54:56;;;;;;;7.40;2.27;;;;;;;14.27;72.58;101259.16;4995815;28;20184;-79
2022/07/08 00:57:21;;;;;;;8.87;2.13;;;;;;;14.25;72.24;101263.59;4993325;28;20607;-78
2022/07/08 00:59:48;;;;;;;4.77;1.80;;;;;;;14.34;71.72;101260.53;4994213;28;20257;-79
2022/07/08 01:02:13;;;;;;;6.43;2.23;;;;;;;14.42;72.34;101263.53;4999376;28;20230;-78
2022/07/08 01:04:38;;;;;;;9.33;2.43;;;;;;;14.39;72.81;101273.22;4993058;28;20674;-77
2022/07/08 01:07:03;;;;;;;6.73;2.40;;;;;;;14.52;72.57;101277.69;4992143;28;20172;-75
2022/07/08 01:09:29;;;;;;;6.67;1.90;;;;;;;14.51;71.96;101281.19;4990504;28;20196;-78
2022/07/08 01:11:55;;;;;;;7.77;2.07;;;;;;;14.60;71.66;101281.59;4982241;28;20671;-78
2022/07/08 01:14:20;;;;;;;8.80;2.63;;;;;;;14.59;71.98;101282.56;4993392;28;20266;-76
2022/07/08 01:16:45;;;;;;;8.93;2.70;;;;;;;14.60;71.32;101281.59;4993591;28;20403;-78
2022/07/08 01:19:10;;;;;;;9.80;2.43;;;;;;;14.57;71.27;101285.19;4995888;28;20534;-79
2022/07/08 01:21:36;;;;;;;9.70;2.13;;;;;;;14.54;71.56;101290.56;4984189;28;20233;-78
2022/07/08 01:24:02;;;;;;;5.63;2.30;;;;;;;14.49;72.16;101289.97;4997196;28;20191;-78
2022/07/08 01:26:28;;;;;;;5.00;2.10;;;;;;;14.42;72.45;101284.25;4992533;28;20682;-79
2022/07/08 01:28:54;;;;;;;4.37;1.83;;;;;;;14.41;72.82;101298.09;4991963;28;20211;-78
2022/07/08 01:31:20;;;;;;;6.73;2.10;;;;;;;14.27;73.97;101303.16;4993609;28;20230;-79
2022/07/08 01:33:45;;;;;;;5.00;1.90;;;;;;;14.29;73.99;101298.72;4996787;28;20210;-78
2022/07/08 01:36:10;;;;;;;5.43;1.80;;;;;;;14.18;73.52;101300.13;5010838;28;20258;-79
2022/07/08 01:38:36;;;;;;;8.30;2.30;;;;;;;14.13;74.18;101301.28;4992989;28;20179;-78
2022/07/08 01:41:02;;;;;;;7.97;2.20;;;;;;;14.03;74.42;101291.38;4991008;28;20334;-79
2022/07/08 01:43:27;;;;;;;8.50;2.40;;;;;;;13.96;74.91;101296.94;5000826;28;20737;-77
2022/07/08 01:45:52;;;;;;;9.30;2.07;;;;;;;14.03;74.97;101291.38;4992277;28;20187;-78
2022/07/08 01:48:18;;;;;;;5.83;1.83;;;;;;;13.96;74.83;101292.59;4992052;28;20222;-78
2022/07/08 01:50:43;;;;;;;4.17;1.83;;;;;;;13.93;75.18;101294.50;4988246;28;20235;-77
2022/07/08 01:53:08;;;;;;;5.53;2.17;;;;;;;13.75;75.99;101297.09;5007778;28;20187;-78
2022/07/08 01:55:34;;;;;;;7.40;2.87;;;;;;;13.61;76.50;101291.75;4992385;28;20203;-79
2022/07/08 01:57:59;;;;;;;8.80;1.90;;;;;;;13.58;76.57;101297.06;4992144;28;20270;-79
2022/07/08 02:00:24;;;;;;;4.67;1.83;;;;;;;13.55;76.73;101298.88;4984419;28;20227;-78
2022/07/08 02:02:50;;;;;;;7.80;2.30;;;;;;;13.52;77.19;101293.00;4991938;28;20179;-78
2022/07/08 02:05:15;;;;;;;8.67;2.10;;;;;;;13.45;78.25;101291.66;4991867;28;20183;-78
2022/07/08 02:07:41;;;;;;;6.63;1.93;;;;;;;13.44;78.35;101295.16;4991285;28;20635;-79
2022/07/08 02:10:07;;;;;;;4.60;1.83;;;;;;;13.35;78.67;101286.88;4982846;28;20199;-79
2022/07/08 02:12:34;;;;;;;3.73;1.67;;;;;;;13.30;79.03;101285.44;4991618;28;20193;-79
2022/07/08 02:15:02;;;;;;;5.93;2.10;;;;;;;13.38;79.15;101291.09;4991754;28;20179;-80
2022/07/08 02:17:34;;;;;;;3.60;1.70;;;;;;;13.25;79.47;101283.06;4981041;28;20554;-79
2022/07/08 02:20:00;;;;;;;5.73;2.40;;;;;;;13.24;79.55;101286.53;4998917;28;20278;-80
2022/07/08 02:22:26;;;;;;;5.90;1.93;;;;;;;13.31;79.41;101289.66;4981728;28;20365;-79
2022/07/08 02:24:52;;;;;;;4.67;1.93;;;;;;;13.32;78.87;101292.19;4991673;28;20767;-79
2022/07/08 02:27:17;;;;;;;8.67;2.33;;;;;;;13.23;79.95;101300.38;4992874;28;20219;-79
2022/07/08 02:29:43;;;;;;;8.37;2.20;;;;;;;13.23;80.01;101298.63;4991963;28;20196;-81
2022/07/08 02:32:09;;;;;;;4.43;2.27;;;;;;;13.15;80.69;101305.06;4977786;28;20729;-78
2022/07/08 02:34:34;;;;;;;9.43;2.67;;;;;;;13.14;80.72;101305.97;4990502;28;20187;-79
2022/07/08 02:36:59;;;;;;;5.77;2.07;;;;;;;13.03;81.48;101309.03;4990972;28;20203;-79
2022/07/08 02:39:25;;;;;;;4.83;2.10;;;;;;;13.01;82.15;101314.28;4990875;28;20183;-77
2022/07/08 02:41:50;;;;;;;6.87;1.90;;;;;;;12.71;84.22;101319.06;4995758;28;20245;-78
2022/07/08 02:44:17;;;;;;;7.40;2.10;;;;;;;12.80;83.80;101312.66;4991280;28;20290;-78
2022/07/08 02:46:43;;;;;;;4.97;1.90;;;;;;;12.77;84.88;101316.22;4990909;28;20180;-77
2022/07/08 02:49:08;;;;;;;7.00;2.13;;;;;;;12.73;84.99;101312.09;4989287;28;20210;-78
2022/07/08 02:51:34;;;;;;;5.53;1.87;;;;;;;12.64;85.77;101309.91;4999740;28;20231;-78
2022/07/08 02:53:59;;;;;;;9.73;2.10;;;;;;;12.37;87.23;101320.53;5010467;28;20662;-78
2022/07/08 02:56:25;;;;;;;5.40;1.97;;;;;;;12.24;88.98;101320.19;4991139;28;20175;-81
2022/07/08 02:58:50;;;;;;;6.70;2.20;;;;;;;12.15;90.02;101331.75;4991831;28;20223;-79
2022/07/08 03:01:15;;;;;;;7.37;2.40;;;;;;;12.17;89.82;101322.22;4964248;28;20227;-79
2022/07/08 03:03:41;;;;;;;6.43;1.90;;;;;;;12.09;90.26;101326.84;4971149;28;20266;-77
2022/07/08 03:06:06;;;;;;;7.87;2.73;;;;;;;12.05;90.82;101330.44;4971081;28;20254;-77
2022/07/08 03:08:31;;;;;;;5.03;2.00;;;;;;;11.73;93.13;101329.97;4972979;28;20190;-78
2022/07/08 03:10:57;;;;;;;4.93;1.87;;;;;;;11.71;93.82;101330.03;4971184;28;20247;-78
2022/07/08 03:13:22;;;;;;;7.33;2.53;;;;;;;11.75;93.46;101329.00;5000715;28;20230;-78
2022/07/08 03:15:48;;;;;;;7.03;2.40;;;;;;;11.84;93.58;101330.38;4983548;28;20276;-77
2022/07/08 03:18:13;;;;;;;8.63;2.00;;;;;;;11.84;93.69;101325.22;4993150;28;20204;-77
2022/07/08 03:20:38;;;;;;;5.23;2.20;;;;;;;11.82;93.51;101332.19;4988576;28;20300;-76
2022/07/08 03:23:04;;;;;;;4.60;1.87;;;;;;;11.75;93.80;101329.00;4990968;28;20721;-77
2022/07/08 03:25:30;;;;;;;9.50;2.83;;;;;;;11.77;94.02;101336.69;4992065;28;20270;-77
2022/07/08 03:27:56;;;;;;;9.23;2.40;;;;;;;11.76;93.17;101332.44;4989845;28;20180;-78
2022/07/08 03:30:22;;;;;;;5.33;2.87;;;;;;;11.73;93.83;101332.56;4969319;28;20742;-77
2022/07/08 03:32:47;;;;;;;4.40;2.13;;;;;;;11.72;93.70;101330.88;4973191;28;20275;-77
2022/07/08 03:35:13;;;;;;;6.37;2.50;;;;;;;11.74;93.33;101334.25;4990198;28;20237;-77
2022/07/08 03:37:42;;;;;;;8.40;2.20;;;;;;;11.70;93.01;101340.41;4993444;28;20274;-76
2022/07/08 03:42:53;;;;;;;9.40;2.27;;;;;;;11.76;93.22;101337.59;5004469;28;20195;-78
2022/07/08 03:45:18;;;;;;;5.93;2.50;;;;;;;11.74;93.56;101340.22;4994282;28;20651;-77
2022/07/08 03:47:43;;;;;;;7.83;2.20;;;;;;;11.66;94.16;101342.28;4995244;28;20273;-79
2022/07/08 03:50:09;;;;;;;4.93;2.00;;;;;;;11.69;93.99;101349.88;4984368;28;20680;-79
2022/07/08 03:52:34;;;;;;;6.50;1.73;;;;;;;11.67;94.00;101351.69;4994364;28;20187;-78
2022/07/08 03:54:59;;;;;;;7.37;2.47;;;;;;;11.67;94.36;101354.28;4993609;28;20179;-78
2022/07/08 03:57:25;;;;;;;9.53;2.37;;;;;;;11.71;94.99;101360.97;4994115;28;20225;-78
2022/07/08 03:59:50;;;;;;;4.83;2.20;;;;;;;11.70;95.03;101361.88;4993521;28;20207;-77
2022/07/08 04:02:16;;;;;;;5.23;1.63;;;;;;;11.67;95.93;101353.41;5000178;28;20218;-65
2022/07/08 04:04:41;;;;;;;4.83;2.17;;;;;;;11.84;94.60;101355.34;4992119;28;20176;-62
2022/07/08 04:07:06;;;;;;;4.93;2.30;;;;;;;11.81;94.80;101364.03;4980720;28;20184;-62
2022/07/08 04:09:32;;;;;;;8.37;2.27;;;;;;;12.05;94.28;101369.13;4982197;28;20571;-62
2022/07/08 04:11:57;;;;;;;5.03;1.97;;;;;;;12.11;94.07;101361.16;4978220;28;20223;-62
2022/07/08 04:14:22;;;;;;;6.57;2.53;;;;;;;12.29;93.45;101361.28;4976305;28;20556;-62
2022/07/08 04:16:47;;;;;;;8.13;2.53;;;;;;;12.32;93.02;101364.59;4975433;28;20184;-62
2022/07/08 04:19:13;;;;;;;9.43;2.33;;;;;;;12.40;92.86;101362.53;4991012;28;20204;-62
2022/07/08 04:21:38;;;;;;;9.83;2.80;;;;;;;12.45;92.27;101366.66;4979944;28;20748;-63
2022/07/08 04:24:03;;;;;;;3.87;2.00;;;;;;;12.40;92.85;101365.13;4983878;28;20207;-63
2022/07/08 04:26:31;;;;;;;8.27;2.40;;;;;;;12.51;92.24;101367.22;4981035;28;20243;-62
2022/07/08 04:29:01;;;;;;;5.53;2.47;;;;;;;12.54;92.30;101366.25;4976433;28;20184;-62
2022/07/08 04:31:27;;;;;;;7.40;2.50;;;;;;;12.60;92.33;101368.56;4980921;28;20230;-64
2022/07/08 04:33:53;;;;;;;8.67;3.03;;;;;;;12.67;92.85;101364.81;4988248;28;20194;-62
2022/07/08 04:36:20;;;;;;;7.37;2.93;;;;;;;12.65;92.11;101370.97;4991122;28;20210;-62
2022/07/08 04:38:45;;;;;;;7.97;2.23;;;;;;;12.73;92.14;101363.72;4981603;28;20188;-62
2022/07/08 04:41:11;;;;;;;7.27;2.50;;;;;;;12.77;92.10;101367.84;4973917;28;20234;-61
2022/07/08 04:43:36;;;;;;;7.53;2.43;;;;;;;13.02;90.76;101369.34;4990990;28;20638;-61
2022/07/08 04:46:01;;;;;;;11.63;2.60;;;;;;;13.15;89.68;101374.81;4974986;28;20172;-62
2022/07/08 04:48:26;;;;;;;6.07;2.17;;;;;;;13.17;89.30;101380.75;4983640;28;20287;-62
2022/07/08 04:50:52;;;;;;;7.03;2.40;;;;;;;13.20;88.57;101378.03;4981665;28;20327;-62
2022/07/08 04:53:17;;;;;;;6.17;2.33;;;;;;;13.29;88.94;101387.94;4997668;28;20188;-62
2022/07/08 04:55:42;;;;;;;9.77;2.37;;;;;;;13.46;88.41;101388.94;4979006;28;20642;-62
2022/07/08 04:58:08;;;;;;;7.43;2.43;;;;;;;13.47;87.95;101395.78;4994522;28;20183;-61
2022/07/08 05:00:33;;;;;;;8.53;2.40;;;;;;;13.67;87.04;101390.53;4985435;28;20648;-64
2022/07/08 05:02:59;;;;;;;8.40;2.10;;;;;;;13.75;86.85;101392.75;4992821;28;20274;-63
2022/07/08 05:05:26;;;;;;;9.73;2.33;;;;;;;13.86;86.04;101402.59;4992915;28;20188;-64
2022/07/08 05:07:52;;;;;;;13.10;2.30;;;;;;;13.87;84.43;101409.47;4993994;28;20942;-65
2022/07/08 05:10:20;;;;;;;7.50;2.60;;;;;;;13.80;84.98;101408.88;4993033;28;20203;-63
2022/07/08 05:12:46;;;;;;;5.33;2.13;;;;;;;13.93;84.61;101410.91;4995492;28;20270;-64
2022/07/08 05:15:11;;;;;;;5.43;2.20;;;;;;;14.04;82.95;101414.66;4982767;28;20192;-64
2022/07/08 05:17:38;;;;;;;6.27;2.20;;;;;;;14.18;80.71;101421.75;4989841;28;20270;-62
2022/07/08 05:20:06;;;;;;;6.73;1.90;;;;;;;14.28;80.08;101416.13;4982216;28;20191;-63
2022/07/08 05:22:32;;;;;;;6.67;2.10;;;;;;;14.40;78.66;101425.88;4976865;28;20208;-61
2022/07/08 05:24:57;;;;;;;6.13;1.80;;;;;;;14.42;79.04;101425.81;4986652;28;20191;-61
2022/07/08 05:27:22;;;;;;;9.93;2.00;;;;;;;14.39;77.85;101428.53;4980327;28;20228;-63
2022/07/08 05:29:48;;;;;;;7.33;2.30;;;;;;;14.57;77.18;101426.78;4987542;28;20195;-64
2022/07/08 05:32:13;;;;;;;6.13;2.10;;;;;;;14.88;75.56;101430.44;4980310;28;20297;-65
2022/07/08 05:34:41;;;;;;;4.70;2.10;;;;;;;15.33;72.81;101429.78;4994230;28;20172;-79
2022/07/08 05:37:12;;;;;;;3.77;1.47;;;;;;;15.53;67.89;101430.47;4993533;28;20212;-76
2022/07/08 05:39:42;;;;;;;6.30;2.50;;;;;;;15.91;65.52;101427.53;4980865;28;20191;-76
2022/07/08 05:42:08;;;;;;;5.00;1.93;;;;;;;16.44;60.37;101433.19;4997253;28;20226;-76
2022/07/08 05:44:35;;;;;;;4.83;1.33;;;;;;;16.70;57.94;101433.44;4990616;28;20238;-76
2022/07/08 05:47:00;;;;;;;8.77;1.80;;;;;;;16.98;55.81;101423.16;4992089;28;20207;-76
2022/07/08 05:49:26;;;;;;;6.73;1.53;;;;;;;17.32;54.37;101434.13;4993128;28;20659;-76
2022/07/08 05:51:52;;;;;;;6.20;2.10;;;;;;;17.66;52.95;101437.19;4985006;28;20226;-77
2022/07/08 05:54:18;;;;;;;8.50;1.87;;;;;;;18.00;51.31;101435.09;5001137;28;21087;-77
2022/07/08 05:56:43;;;;;;;5.00;1.70;;;;;;;18.11;50.46;101444.78;4991542;28;20273;-76
2022/07/08 05:59:08;;;;;;;5.70;1.80;;;;;;;17.26;52.26;101441.34;4991168;28;20305;-75
2022/07/08 06:01:34;;;;;;;4.53;1.73;;;;;;;16.93;53.26;101445.09;4985096;28;20234;-79
2022/07/08 06:04:01;;;;;;;4.80;1.43;;;;;;;17.21;52.66;101447.78;4996821;28;20636;-79
2022/07/08 06:06:29;;;;;;;4.60;1.70;;;;;;;17.50;51.58;101450.34;4991389;28;20194;-78
2022/07/08 06:08:56;;;;;;;5.13;1.73;;;;;;;18.03;50.11;101455.72;4989673;28;20451;-76
2022/07/08 06:11:21;;;;;;;3.53;1.50;;;;;;;17.71;48.24;101463.75;4984894;28;20237;-78
2022/07/08 06:13:47;;;;;;;8.20;2.17;;;;;;;17.63;49.53;101461.66;4991404;28;20179;-77
2022/07/08 06:16:12;;;;;;;7.23;2.00;;;;;;;17.49;49.01;101462.53;4991848;28;20723;-76
2022/07/08 06:18:37;;;;;;;5.57;1.53;;;;;;;17.30;49.67;101472.38;4996983;28;20183;-76
2022/07/08 06:21:03;;;;;;;9.03;1.70;;;;;;;17.12;49.01;101469.97;4984026;28;20246;-77
2022/07/08 06:23:29;;;;;;;4.97;1.40;;;;;;;16.87;51.01;101476.59;4989099;28;20250;-75
2022/07/08 06:25:54;;;;;;;6.77;1.73;;;;;;;16.96;49.99;101470.06;5003575;28;20261;-76
2022/07/08 06:28:20;;;;;;;6.70;2.30;;;;;;;16.91;50.94;101474.66;4991734;28;20221;-75
2022/07/08 06:30:45;;;;;;;8.33;2.17;;;;;;;16.29;53.50;101470.44;4987903;28;20590;-75
2022/07/08 06:33:10;;;;;;;5.03;1.40;;;;;;;16.53;52.88;101468.19;4991657;28;20350;-75
2022/07/08 06:35:36;;;;;;;3.80;1.50;;;;;;;16.82;51.11;101476.06;4991999;28;20735;-78
2022/07/08 06:38:01;;;;;;;5.70;1.67;;;;;;;17.45;50.39;101468.00;4991268;28;20694;-77
2022/07/08 06:40:27;;;;;;;4.67;1.60;;;;;;;17.65;49.64;101475.41;4983933;28;20229;-77
2022/07/08 06:42:53;;;;;;;3.67;1.30;;;;;;;17.64;48.01;101481.53;5004642;28;20298;-77
2022/07/08 06:45:18;;;;;;;5.77;1.40;;;;;;;17.57;49.24;101464.63;4992327;28;20187;-79
2022/07/08 06:47:43;;;;;;;4.27;1.77;;;;;;;18.62;46.48;101473.56;4994600;28;20265;-63
2022/07/08 06:50:09;;;;;;;4.13;1.90;;;;;;;18.90;45.79;101479.50;4977431;28;20216;-64
2022/07/08 06:52:35;;;;;;;3.63;1.57;;;;;;;18.60;45.45;101483.22;4987664;28;20191;-62
2022/07/08 06:55:01;;;;;;;4.57;2.30;;;;;;;19.00;44.86;101478.00;4972741;28;20190;-63
2022/07/08 06:57:26;;;;;;;4.87;1.57;;;;;;;19.26;44.94;101480.53;4989843;28;20242;-65
2022/07/08 06:59:52;;;;;;;3.07;1.40;;;;;;;19.02;45.17;101480.47;4992286;28;20543;-63
2022/07/08 07:02:17;;;;;;;4.40;1.63;;;;;;;18.91;46.00;101483.81;4971189;28;20254;-63
2022/07/08 07:04:43;;;;;;;5.63;2.27;;;;;;;18.79;46.08;101480.25;4992693;28;20229;-63
2022/07/08 07:07:08;;;;;;;6.10;1.60;;;;;;;18.61;46.65;101482.31;4987791;28;20199;-62
2022/07/08 07:09:34;;;;;;;4.97;1.47;;;;;;;19.48;43.76;101466.00;4981655;28;20345;-63
2022/07/08 07:11:59;;;;;;;5.93;1.60;;;;;;;20.54;40.22;101465.34;4986115;28;20222;-64
2022/07/08 07:14:25;;;;;;;3.40;1.47;;;;;;;20.50;41.32;101468.28;4973903;28;20259;-64
2022/07/08 07:16:50;;;;;;;4.00;1.80;;;;;;;20.11;42.00;101471.97;4982663;28;20253;-64
2022/07/08 07:19:15;;;;;;;6.10;1.80;;;;;;;19.29;43.50;101471.69;4987126;28;20187;-65
2022/07/08 07:21:40;;;;;;;6.00;1.97;;;;;;;18.93;45.57;101471.53;4978245;28;20218;-64
2022/07/08 07:24:06;;;;;;;9.00;1.70;;;;;;;19.22;45.79;101466.06;4981243;28;20299;-63
2022/07/08 07:26:32;;;;;;;6.77;1.80;;;;;;;19.48;44.97;101459.00;4996393;28;20231;-62
2022/07/08 07:28:57;;;;;;;6.43;1.90;;;;;;;19.48;44.71;101463.41;4980339;28;20194;-62
2022/07/08 07:31:22;;;;;;;3.43;1.40;;;;;;;18.74;45.70;101476.28;4964693;28;20223;-63
2022/07/08 09:59:26;;;;;;;6.70;1.80;;;;;;;24.50;31.66;101500.81;5061544;27;1232056;-62
2022/07/08 10:01:52;;;;;;;3.80;1.40;;;;;;;27.52;27.84;101504.94;5104156;28;20196;-64
2022/07/08 10:04:19;;;;;;;3.17;1.38;;;;;;;28.84;25.57;101507.63;5104368;28;20172;-65
2022/07/08 10:06:45;;;;;;;4.18;1.65;;;;;;;29.01;25.29;101510.19;5097676;28;20673;-62
2022/07/08 10:09:10;;;;;;;3.60;1.00;;;;;;;29.21;24.54;101508.78;5092319;28;20183;-64
2022/07/08 10:11:38;;;;;;;5.60;1.55;;;;;;;29.26;24.94;101509.09;5105224;28;20238;-63
2022/07/08 10:14:05;;;;;;;2.95;1.60;;;;;;;31.20;22.67;101500.81;5108607;28;20203;-64
2022/07/08 14:07:15;;;;;;;3.27;1.50;;;;;;;23.58;35.38;101333.94;5049103;28;1227352;-61
2022/07/08 14:09:41;;;;;;;2.67;1.60;;;;;;;23.29;35.84;101334.75;5088603;28;20188;-58
2022/07/08 14:12:09;;;;;;;3.23;1.50;;;;;;;23.32;36.13;101317.91;5087746;28;20178;-60
2022/07/08 14:14:34;;;;;;;7.20;1.57;;;;;;;23.53;35.82;101326.47;5095161;28;20179;-62
2022/07/08 14:17:00;;;;;;;6.50;2.07;;;;;;;23.64;36.29;101328.16;5090548;28;20183;-59
2022/07/08 14:19:25;;;;;;;3.67;1.50;;;;;;;23.73;35.30;101329.09;5088156;28;20196;-58
2022/07/08 14:21:50;;;;;;;4.20;1.27;;;;;;;23.80;36.35;101326.72;5089223;28;20188;-61
2022/07/08 14:24:17;;;;;;;4.83;1.77;;;;;;;23.82;35.80;101333.50;5095640;28;20172;-60
2022/07/08 14:26:43;;;;;;;5.20;1.40;;;;;;;23.88;35.74;101331.28;5093681;28;20186;-61
2022/07/08 14:29:08;;;;;;;4.10;1.60;;;;;;;23.62;35.94;101329.25;5087056;28;20550;-60
2022/07/08 14:31:33;;;;;;;4.20;1.43;;;;;;;23.73;36.08;101323.84;5092376;28;20176;-59
2022/07/08 14:33:59;;;;;;;4.60;1.63;;;;;;;23.86;35.64;101323.53;5090891;28;20165;-59
2022/07/08 14:36:24;;;;;;;5.50;1.53;;;;;;;23.86;35.57;101326.16;5097108;28;20332;-58
2022/07/08 14:38:49;;;;;;;3.60;1.70;;;;;;;23.77;36.04;101316.50;5092805;28;20210;-60
2022/07/08 14:41:15;;;;;;;3.67;1.83;;;;;;;23.93;35.96;101319.41;5088636;28;20509;-59
2022/07/08 14:43:41;;;;;;;6.60;2.10;;;;;;;24.15;35.38;101314.78;5088115;28;20183;-57
2022/07/08 14:46:07;;;;;;;3.63;1.70;;;;;;;24.26;35.41;101314.63;5089040;28;20190;-59
2022/07/08 14:48:32;;;;;;;3.07;1.60;;;;;;;24.37;35.40;101310.97;5108295;28;20171;-61
2022/07/08 14:50:57;;;;;;;2.90;1.70;;;;;;;24.26;35.33;101306.75;5108483;28;20326;-73
2022/07/08 14:53:22;;;;;;;5.73;2.07;;;;;;;24.39;35.42;101302.94;5093529;28;20190;-73
2022/07/08 14:55:49;;;;;;;3.50;1.37;;;;;;;24.50;34.77;101311.47;5100990;28;20180;-73
2022/07/08 14:58:15;;;;;;;4.47;2.00;;;;;;;24.72;34.75;101298.94;5087675;28;20259;-73
2022/07/08 15:00:40;;;;;;;3.90;1.43;;;;;;;24.75;35.03;101300.44;5086372;28;20253;-73
2022/07/08 15:03:06;;;;;;;2.70;1.40;;;;;;;24.95;34.51;101295.88;5085617;28;20203;-73
2022/07/08 15:05:32;;;;;;;6.00;1.60;;;;;;;25.37;34.54;101297.13;5085908;28;20255;-73
2022/07/08 15:07:57;;;;;;;2.63;1.70;;;;;;;25.41;34.26;101294.00;5085505;28;20542;-73
2022/07/08 15:10:23;;;;;;;3.80;1.80;;;;;;;25.42;33.88;101294.84;5076824;28;20203;-73
2022/07/08 15:12:48;;;;;;;3.70;1.40;;;;;;;25.05;34.07;101299.25;5072596;28;20238;-73
2022/07/08 15:15:14;;;;;;;3.57;1.60;;;;;;;25.20;34.47;101298.75;5072962;28;20177;-73
2022/07/08 15:17:39;;;;;;;3.22;1.70;;;;;;;25.25;34.12;101299.94;5074264;28;20271;-73
2022/07/08 15:20:05;;;;;;;3.97;1.50;;;;;;;25.07;34.68;101294.69;5072364;28;20570;-73
2022/07/08 15:22:30;;;;;;;2.03;1.48;;;;;;;24.73;34.54;101297.13;5073159;28;20212;-72
2022/07/08 15:24:56;;;;;;;4.32;1.52;;;;;;;24.95;35.10;101283.53;5073241;28;20191;-72
2022/07/08 15:27:21;;;;;;;3.47;1.67;;;;;;;25.41;34.83;101287.94;5074409;28;20631;-73
2022/07/08 15:29:46;;;;;;;3.72;1.70;;;;;;;25.41;34.78;101280.84;5073778;28;20173;-73
2022/07/08 15:32:13;;;;;;;4.00;1.70;;;;;;;25.52;33.90;101282.41;5072202;28;20627;-72
2022/07/08 15:34:38;;;;;;;3.72;1.50;;;;;;;25.17;34.35;101276.19;5072941;28;20192;-72
2022/07/08 15:37:03;;;;;;;4.60;1.70;;;;;;;24.80;35.47;101275.31;5072617;28;20548;-72
2022/07/08 15:39:29;;;;;;;3.08;1.65;;;;;;;24.67;35.00;101287.19;5072369;28;20300;-73
2022/07/08 15:41:54;;;;;;;2.03;1.23;;;;;;;24.13;36.14;101274.69;5074318;28;20225;-72
2022/07/08 15:44:19;;;;;;;6.87;1.80;;;;;;;23.90;36.36;101279.41;5072472;28;20306;-72
2022/07/08 15:46:45;;;;;;;3.60;1.43;;;;;;;24.09;36.52;101268.88;5072652;28;20548;-73
2022/07/08 15:49:10;;;;;;;7.10;2.07;;;;;;;24.20;36.24;101267.03;5073791;28;20181;-72
2022/07/08 15:51:36;;;;;;;4.20;1.70;;;;;;;24.39;35.76;101268.78;5074103;28;20180;-72
2022/07/08 15:54:01;;;;;;;3.77;1.70;;;;;;;24.06;36.25;101260.47;5067895;28;20551;-72
2022/07/08 15:56:27;;;;;;;5.40;1.27;;;;;;;24.41;36.18;101262.38;5072268;28;20185;-72
2022/07/08 15:58:52;;;;;;;4.27;1.70;;;;;;;24.61;35.14;101257.00;5071484;28;20295;-72
2022/07/08 16:01:18;;;;;;;2.90;1.37;;;;;;;24.02;36.46;101263.34;5072239;28;20318;-72
2022/07/08 16:03:43;;;;;;;3.67;1.50;;;;;;;24.10;36.62;101265.28;5073569;28;20242;-72
2022/07/08 16:06:09;;;;;;;3.33;1.80;;;;;;;23.97;36.35;101262.97;5083324;28;20226;-72
2022/07/08 16:08:34;;;;;;;3.80;1.60;;;;;;;24.39;36.47;101253.00;5075186;28;20172;-72
2022/07/08 16:11:00;;;;;;;3.03;1.50;;;;;;;24.55;35.89;101254.97;5094046;28;20184;-73
2022/07/08 16:13:25;;;;;;;7.90;2.23;;;;;;;24.56;36.15;101246.94;5075389;28;20184;-73
2022/07/08 16:15:50;;;;;;;3.23;1.50;;;;;;;24.77;35.92;101254.59;5093822;28;20206;-73
2022/07/08 16:18:16;;;;;;;3.43;1.50;;;;;;;24.85;35.51;101264.34;5093089;28;20607;-72
2022/07/08 16:20:41;;;;;;;2.30;1.27;;;;;;;24.63;35.60;101265.56;5074315;28;20267;-73
2022/07/08 16:23:08;;;;;;;2.73;1.20;;;;;;;24.24;36.31;101257.91;5074783;28;20186;-72
2022/07/08 16:25:36;;;;;;;6.30;1.80;;;;;;;24.38;36.35;101254.78;5075710;28;20172;-73
2022/07/08 16:28:03;;;;;;;3.13;1.60;;;;;;;24.65;36.17;101255.78;5075142;28;20180;-72
2022/07/08 16:30:28;;;;;;;3.40;1.50;;;;;;;24.58;35.92;101250.22;5074450;28;20176;-73
2022/07/08 16:32:54;;;;;;;7.93;2.03;;;;;;;24.79;36.00;101257.06;5093519;28;20190;-73
2022/07/08 16:35:19;;;;;;;7.07;1.70;;;;;;;25.08;35.98;101254.22;5074902;28;20267;-73
2022/07/08 16:37:44;;;;;;;4.73;1.50;;;;;;;25.20;36.33;101257.44;5093303;28;20213;-73
2022/07/08 16:40:10;;;;;;;5.10;1.50;;;;;;;24.86;36.34;101252.88;5074364;28;20179;-73
2022/07/08 16:42:36;;;;;;;3.87;1.83;;;;;;;24.52;37.43;101250.00;5093126;28;20585;-73
2022/07/08 16:45:01;;;;;;;4.80;1.77;;;;;;;24.31;38.09;101249.28;5074976;28;20172;-73
2022/07/08 16:47:27;;;;;;;3.63;1.43;;;;;;;24.04;37.73;101262.38;5074476;28;20172;-73
2022/07/08 16:49:52;;;;;;;4.33;2.03;;;;;;;23.67;38.31;101256.13;5074521;28;20221;-73
2022/07/08 16:52:17;;;;;;;2.67;1.70;;;;;;;23.56;38.77;101257.09;5090540;28;20175;-72
2022/07/08 16:54:43;;;;;;;3.47;1.73;;;;;;;23.43;38.99;101256.56;5092944;28;20199;-73
2022/07/08 16:57:08;;;;;;;4.07;1.70;;;;;;;23.69;38.70;101254.16;5092632;28;20188;-73
2022/07/08 16:59:35;;;;;;;6.40;1.90;;;;;;;23.64;38.90;101248.50;5073847;28;20219;-73
2022/07/08 17:02:00;;;;;;;4.13;2.10;;;;;;;24.10;38.44;101252.16;5073992;28;20187;-72
2022/07/08 17:04:26;;;;;;;3.20;1.80;;;;;;;24.31;38.26;101257.19;5074791;28;20180;-73
2022/07/08 17:06:54;;;;;;;3.10;1.70;;;;;;;24.30;37.83;101259.97;5092477;28;20593;-73
2022/07/08 17:09:20;;;;;;;3.60;1.77;;;;;;;23.99;38.32;101254.97;5073867;28;20176;-73
2022/07/08 17:11:45;;;;;;;2.93;1.50;;;;;;;23.92;39.20;101257.31;5092709;28;20547;-73
2022/07/08 17:14:11;;;;;;;6.37;1.97;;;;;;;23.89;38.93;101251.47;5074365;28;20271;-72
2022/07/08 17:16:37;;;;;;;5.33;1.50;;;;;;;24.01;38.89;101253.84;5074060;28;20191;-72
2022/07/08 17:19:03;;;;;;;4.57;1.80;;;;;;;24.07;39.23;101246.34;5074043;28;20201;-72
2022/07/08 17:21:31;;;;;;;2.77;1.70;;;;;;;23.80;39.29;101254.03;5074165;28;20191;-73
2022/07/08 17:23:56;;;;;;;3.53;1.83;;;;;;;23.59;39.50;101261.22;5092618;28;20285;-72
2022/07/08 17:26:21;;;;;;;2.17;1.37;;;;;;;23.75;39.51;101250.16;5092212;28;20274;-72
2022/07/08 17:28:47;;;;;;;3.67;1.60;;;;;;;23.89;39.62;101251.47;5073405;28;20184;-72
2022/07/08 17:31:13;;;;;;;3.53;1.77;;;;;;;23.97;39.91;101265.59;5092199;28;20582;-72
2022/07/08 17:33:38;;;;;;;4.30;1.70;;;;;;;23.81;39.79;101250.41;5092341;28;20617;-73
2022/07/08 17:36:04;;;;;;;4.30;1.77;;;;;;;23.78;40.09;101255.94;5074088;28;20180;-72